»·PEaware :: ASA1621 KSAN-KLAX

ASA1621 :: KSAN-KLAX

FLIGHT INFORMATION

Flight Status: Arrived
Operator:
Alaska Airlines
More flights by this operator :: More flights under this callsign
Pilot: Sam C. (16293)
Aircraft: BOEING 737-800
(B738)
More flights by this aircraft type
Origin: KSAN San Diego Intl-Lindbergh
United States
Destination: KLAX Los Angeles Intl
United States
More flights between these airports :: More routes between these airports
Route: +KSAN PEBLE6 SLI KLAX
File this flight plan on PilotEdge
Remarks:
Altitude:
(Current/Filed)
19,000ft
Speed:
(Current/Filed)
450kts
Departed: 12-Aug-17 09:22 PM
Arrived: 12-Aug-17 09:50 PM
Distance/Time
Traveled:
95nm/0:28
Distance/Time
To Go:
Arrived

Flight Plot

Page will automatically refresh every two minutes.


Map Options




Map Legend


Flown Route
Filed Route
Departure Airport
Arrival Airport
Navaid (VOR, NDB)
Fix

Horizontal Profiles

Position Reports

Time Latitude Longitude Heading Altitude Ground
Speed
12-Aug-17 20:49 32.733414 -117.200735 264 25ft 0kts
12-Aug-17 20:50 32.733414 -117.200735 264 25ft 0kts
12-Aug-17 20:51 32.733414 -117.200735 264 25ft 0kts
12-Aug-17 20:52 32.733414 -117.200735 264 25ft 0kts
12-Aug-17 20:52 32.733414 -117.200735 264 25ft 0kts
12-Aug-17 20:53 32.733414 -117.200735 264 25ft 0kts
12-Aug-17 20:55 32.733414 -117.200735 264 25ft 0kts
12-Aug-17 20:56 32.733414 -117.200735 264 25ft 0kts
12-Aug-17 20:56 32.733414 -117.200735 264 25ft 0kts
12-Aug-17 20:57 32.733414 -117.200735 264 25ft 0kts
12-Aug-17 20:58 32.733414 -117.200735 264 25ft 0kts
12-Aug-17 20:59 32.733414 -117.200735 264 25ft 0kts
12-Aug-17 21:00 32.733414 -117.200735 264 25ft 0kts
12-Aug-17 21:01 32.733414 -117.200735 264 25ft 0kts
12-Aug-17 21:02 32.733414 -117.200735 264 25ft 0kts
12-Aug-17 21:03 32.733414 -117.200735 264 25ft 0kts
12-Aug-17 21:04 32.733414 -117.200735 264 25ft 0kts
12-Aug-17 21:05 32.733414 -117.200735 264 25ft 0kts
12-Aug-17 21:06 32.733464 -117.200385 259 25ft 1kts
12-Aug-17 21:07 32.733264 -117.199865 357 25ft 2kts
12-Aug-17 21:08 32.733188 -117.199872 12 25ft 0kts
12-Aug-17 21:09 32.733188 -117.199872 12 25ft 0kts
12-Aug-17 21:10 32.733188 -117.199872 12 25ft 0kts
12-Aug-17 21:11 32.733188 -117.199872 12 25ft 0kts
12-Aug-17 21:12 32.733188 -117.199872 12 25ft 0kts
12-Aug-17 21:13 32.733189 -117.199872 12 25ft 0kts
12-Aug-17 21:14 32.734677 -117.199324 53 25ft 8kts
12-Aug-17 21:15 32.733804 -117.194995 106 25ft 10kts
12-Aug-17 21:16 32.732598 -117.190012 106 24ft 14kts
12-Aug-17 21:17 32.731462 -117.185311 106 24ft 15kts
12-Aug-17 21:18 32.730346 -117.180712 105 24ft 15kts
12-Aug-17 21:19 32.729511 -117.177025 81 25ft 0kts
12-Aug-17 21:20 32.729511 -117.177025 81 25ft 0kts
12-Aug-17 21:21 32.729518 -117.176719 71 25ft 0kts
12-Aug-17 21:22 32.729518 -117.176719 71 25ft 0kts
12-Aug-17 21:23 32.729582 -117.176480 72 25ft 7kts
12-Aug-17 21:24 32.730184 -117.175781 303 25ft 1kts
12-Aug-17 21:25 32.737250 -117.205005 285 1023ft 179kts
12-Aug-17 21:26 32.762492 -117.253970 309 3902ft 201kts
12-Aug-17 21:27 32.798055 -117.309274 306 6219ft 265kts
12-Aug-17 21:28 32.842402 -117.383028 305 8740ft 283kts
12-Aug-17 21:29 32.894456 -117.451119 329 10003ft 290kts
12-Aug-17 21:30 32.960656 -117.501417 312 9993ft 288kts
12-Aug-17 21:31 33.009528 -117.573076 308 9979ft 288kts
12-Aug-17 21:32 33.058695 -117.647326 308 9999ft 288kts
12-Aug-17 21:33 33.107341 -117.721406 307 10000ft 288kts
12-Aug-17 21:34 33.151321 -117.789006 307 10000ft 288kts
12-Aug-17 21:35 33.212124 -117.845164 341 10007ft 289kts
12-Aug-17 21:36 33.287468 -117.873936 342 10008ft 288kts
12-Aug-17 21:37 33.362903 -117.901543 343 10009ft 288kts
12-Aug-17 21:38 33.437256 -117.928567 343 10009ft 288kts
12-Aug-17 21:39 33.505149 -117.953250 343 9764ft 287kts
12-Aug-17 21:40 33.578285 -117.979874 343 8575ft 282kts
12-Aug-17 21:41 33.649038 -118.005674 343 7341ft 277kts
12-Aug-17 21:42 33.714816 -118.029700 343 7011ft 276kts
12-Aug-17 21:43 33.777455 -118.052743 339 7014ft 276kts
12-Aug-17 21:44 33.846166 -118.056935 1 7018ft 276kts
12-Aug-17 21:45 33.909772 -118.055085 1 6206ft 229kts
12-Aug-17 21:46 33.955912 -118.069271 307 4886ft 218kts
12-Aug-17 21:47 33.967440 -118.130027 257 4032ft 208kts
12-Aug-17 21:48 33.958699 -118.173858 262 4033ft 209kts
12-Aug-17 21:49 33.953775 -118.219583 263 4019ft 206kts
12-Aug-17 21:50 33.947449 -118.282696 263 2266ft 205kts
12-Aug-17 21:51 33.941858 -118.339841 262 943ft 180kts
12-Aug-17 21:52 33.937815 -118.378844 263 225ft 157kts
12-Aug-17 21:53 33.935611 -118.401143 276 133ft 17kts
12-Aug-17 21:54 33.936114 -118.403306 291 133ft 1kts
12-Aug-17 21:55 33.936084 -118.406017 263 133ft 17kts
12-Aug-17 21:56 33.937180 -118.409010 354 133ft 12kts
12-Aug-17 21:57 33.938917 -118.406623 82 133ft 15kts
12-Aug-17 21:58 33.939701 -118.402619 37 133ft 7kts
12-Aug-17 21:59 33.940024 -118.402324 36 133ft 0kts

Navigation Log

Ident Type
1. KSAN Airport
2. SLI Navaid
3. KLAX Airport